createdAt,value
2023-03-04T00:00:58.895Z,100191.48
2023-03-04T00:02:02.659Z,100191.78
2023-03-04T00:03:07.249Z,100189.86
2023-03-04T00:04:10.199Z,100186.38
2023-03-04T00:05:13.095Z,100182.20
2023-03-04T00:06:16.536Z,100183.18
2023-03-04T00:07:19.385Z,100185.11
2023-03-04T00:08:22.304Z,100182.58
2023-03-04T00:09:25.229Z,100183.80
2023-03-04T00:10:28.485Z,100182.67
2023-03-04T00:11:32.554Z,100176.67
2023-03-04T00:12:35.423Z,100179.91
2023-03-04T00:13:38.308Z,100178.07
2023-03-04T00:14:41.455Z,100172.30
2023-03-04T00:15:44.341Z,100172.09
2023-03-04T00:16:49.277Z,100165.33
2023-03-04T00:17:52.241Z,100170.94
2023-03-04T00:18:56.195Z,100169.27
2023-03-04T00:19:59.168Z,100168.94
2023-03-04T00:21:02.032Z,100167.92
2023-03-04T00:22:05.408Z,100167.83
2023-03-04T00:23:08.368Z,100163.91
2023-03-04T00:24:11.219Z,100166.12
2023-03-04T00:25:14.412Z,100167.52
2023-03-04T00:26:17.910Z,100164.48
2023-03-04T00:27:22.433Z,100168.90
2023-03-04T00:28:25.279Z,100162.73
2023-03-04T00:29:28.799Z,100162.27
2023-03-04T00:30:31.773Z,100164.11
2023-03-04T00:31:35.366Z,100160.75
2023-03-04T00:32:38.308Z,100159.48
2023-03-04T00:33:43.566Z,100155.56
2023-03-04T00:34:46.424Z,100153.77
2023-03-04T00:35:49.305Z,100152.11
2023-03-04T00:36:52.160Z,100148.07
2023-03-04T00:37:55.040Z,100140.24
2023-03-04T00:38:57.894Z,100141.80
2023-03-04T00:40:01.147Z,100135.58
2023-03-04T00:41:04.119Z,100126.64
2023-03-04T00:42:07.046Z,100134.80
2023-03-04T00:43:09.962Z,100131.56
2023-03-04T00:44:12.813Z,100128.37
2023-03-04T00:45:16.011Z,100124.77
2023-03-04T00:46:19.072Z,100126.41
2023-03-04T00:47:21.946Z,100126.36
2023-03-04T00:48:24.931Z,100128.30
2023-03-04T00:49:27.981Z,100128.00
2023-03-04T00:50:30.814Z,100122.84
2023-03-04T00:51:34.578Z,100121.38
2023-03-04T00:52:37.467Z,100124.08
2023-03-04T00:53:40.351Z,100122.64
2023-03-04T00:54:43.250Z,100120.84
2023-03-04T00:55:46.217Z,100117.27
2023-03-04T00:56:49.144Z,100125.52
2023-03-04T00:57:51.987Z,100117.20
2023-03-04T00:58:55.019Z,100117.81
2023-03-04T00:59:57.846Z,100113.76
2023-03-04T01:01:00.752Z,100113.55
2023-03-04T01:02:03.886Z,100111.02
2023-03-04T01:03:06.826Z,100109.79
2023-03-04T01:04:10.509Z,100108.85
2023-03-04T01:05:14.093Z,100107.29
2023-03-04T01:06:17.349Z,100104.39
2023-03-04T01:07:20.868Z,100101.73
2023-03-04T01:08:23.745Z,100100.33
2023-03-04T01:09:26.923Z,100100.05
2023-03-04T01:10:29.873Z,100102.15
2023-03-04T01:11:32.894Z,100104.11
2023-03-04T01:12:35.879Z,100100.31
2023-03-04T01:13:38.846Z,100101.22
2023-03-04T01:14:41.729Z,100099.58
2023-03-04T01:15:44.604Z,100096.13
2023-03-04T01:16:47.556Z,100092.20
2023-03-04T01:17:51.549Z,100089.45
2023-03-04T01:18:54.412Z,100088.09
2023-03-04T01:19:57.275Z,100086.81
2023-03-04T01:21:00.258Z,100087.18
2023-03-04T01:22:05.956Z,100084.52
2023-03-04T01:23:08.849Z,100080.18
2023-03-04T01:24:12.034Z,100078.66
2023-03-04T01:25:16.972Z,100076.95
2023-03-04T01:26:19.971Z,100070.52
2023-03-04T01:27:23.534Z,100069.33
2023-03-04T01:28:26.934Z,100064.52
2023-03-04T01:29:30.351Z,100062.92
2023-03-04T01:30:33.286Z,100060.67
2023-03-04T01:31:36.197Z,100059.25
2023-03-04T01:32:39.094Z,100055.63
2023-03-04T01:33:42.007Z,100054.04
2023-03-04T01:34:46.286Z,100050.83
2023-03-04T01:35:49.191Z,100045.26
2023-03-04T01:36:52.240Z,100049.73
2023-03-04T01:37:55.108Z,100048.37
2023-03-04T01:38:57.998Z,100040.59
2023-03-04T01:40:00.905Z,100032.16
2023-03-04T01:41:04.259Z,100026.51
2023-03-04T01:42:19.733Z,100015.70
2023-03-04T01:43:25.968Z,99998.70
2023-03-04T01:44:29.063Z,99991.55
2023-03-04T01:45:33.042Z,99982.99
2023-03-04T01:46:36.009Z,99980.95
2023-03-04T01:47:38.973Z,99979.31
2023-03-04T01:48:43.253Z,99978.85
2023-03-04T01:49:53.517Z,99977.23
2023-03-04T01:50:56.763Z,99980.35
2023-03-04T01:51:59.682Z,99982.59
2023-03-04T01:53:03.816Z,99981.30
2023-03-04T01:54:06.722Z,99974.86
2023-03-04T01:55:16.703Z,99971.45
2023-03-04T01:56:25.800Z,99963.72
2023-03-04T01:57:28.742Z,99955.45
2023-03-04T01:58:32.859Z,99958.73
2023-03-04T01:59:36.831Z,99956.35
2023-03-04T02:00:40.243Z,99959.96
2023-03-04T02:02:04.902Z,99955.24
2023-03-04T02:03:15.313Z,99955.59
2023-03-04T02:04:20.903Z,99952.14
2023-03-04T02:05:24.830Z,99953.67
2023-03-04T02:06:28.132Z,99954.96
2023-03-04T02:07:30.996Z,99952.86
2023-03-04T02:08:34.834Z,99951.36
2023-03-04T02:09:37.754Z,99954.35
2023-03-04T02:10:42.958Z,99949.60
2023-03-04T02:11:46.995Z,99943.63
2023-03-04T02:12:50.878Z,99932.20
2023-03-04T02:13:53.821Z,99919.39
2023-03-04T02:14:57.143Z,99917.46
2023-03-04T02:16:00.478Z,99916.11
2023-03-04T02:17:06.344Z,99905.11
2023-03-04T02:18:21.632Z,99914.23
2023-03-04T02:19:39.912Z,99917.33
2023-03-04T02:21:00.152Z,99918.11
2023-03-04T02:22:03.105Z,99923.60
2023-03-04T02:23:23.495Z,99920.23
2023-03-04T02:24:31.404Z,99915.65
2023-03-04T02:25:42.790Z,99909.39
2023-03-04T02:26:47.113Z,99905.05
2023-03-04T02:27:50.471Z,99907.45
2023-03-04T02:28:55.460Z,99905.63
2023-03-04T02:29:58.656Z,99908.13
2023-03-04T02:31:02.084Z,99906.65
2023-03-04T02:32:05.219Z,99911.27
2023-03-04T02:33:17.082Z,99908.85
2023-03-04T02:34:27.679Z,99910.59
2023-03-04T02:35:30.828Z,99909.04
2023-03-04T02:36:36.484Z,99904.45
2023-03-04T02:37:43.257Z,99907.94
2023-03-04T02:38:46.483Z,99912.73
2023-03-04T02:39:50.254Z,99917.80
2023-03-04T02:40:56.153Z,99910.48
2023-03-04T02:42:00.173Z,99907.77
2023-03-04T02:43:03.894Z,99909.45
2023-03-04T02:44:17.708Z,99906.31
2023-03-04T02:45:35.376Z,99913.23
2023-03-04T02:46:38.299Z,99916.13
2023-03-04T02:47:41.189Z,99914.94
2023-03-04T02:48:44.136Z,99914.70
2023-03-04T02:49:47.651Z,99925.15
2023-03-04T02:50:53.171Z,99917.08
2023-03-04T02:52:00.786Z,99923.40
2023-03-04T02:53:03.931Z,99918.20
2023-03-04T02:54:15.754Z,99917.13
2023-03-04T02:55:18.603Z,99916.70
2023-03-04T02:56:21.663Z,99917.46
2023-03-04T02:57:24.602Z,99916.76
2023-03-04T02:58:30.037Z,99915.42
2023-03-04T02:59:34.854Z,99917.23
2023-03-04T03:00:38.420Z,99920.74
2023-03-04T03:01:42.070Z,99915.17
2023-03-04T03:02:45.025Z,99918.36
2023-03-04T03:03:49.172Z,99913.91
2023-03-04T03:04:52.355Z,99914.89
2023-03-04T03:05:55.958Z,99918.80
2023-03-04T03:06:59.044Z,99911.61
2023-03-04T03:08:02.224Z,99915.42
2023-03-04T03:09:06.063Z,99917.89
2023-03-04T03:10:10.006Z,99907.94
2023-03-04T03:11:12.972Z,99909.94
2023-03-04T03:12:15.945Z,99904.74
2023-03-04T03:13:19.327Z,99906.00
2023-03-04T03:14:22.310Z,99906.61
2023-03-04T03:15:25.490Z,99910.05
2023-03-04T03:16:28.498Z,99909.10
2023-03-04T03:17:31.497Z,99907.67
2023-03-04T03:18:34.422Z,99910.17
2023-03-04T03:19:37.339Z,99909.02
2023-03-04T03:20:41.054Z,99905.24
2023-03-04T03:21:44.084Z,99906.27
2023-03-04T03:22:47.714Z,99906.06
2023-03-04T03:23:51.113Z,99906.02
2023-03-04T03:24:54.252Z,99902.48
2023-03-04T03:25:57.118Z,99903.67
2023-03-04T03:27:03.497Z,99901.99
2023-03-04T03:28:06.910Z,99900.20
2023-03-04T03:29:09.776Z,99891.92
2023-03-04T03:30:14.849Z,99898.85
2023-03-04T03:31:17.768Z,99891.84
2023-03-04T03:32:22.798Z,99900.10
2023-03-04T03:33:27.164Z,99888.94
2023-03-04T03:34:30.645Z,99891.41
2023-03-04T03:35:33.573Z,99890.08
2023-03-04T03:36:36.549Z,99885.37
2023-03-04T03:37:39.503Z,99884.67
2023-03-04T03:38:42.395Z,99884.88
2023-03-04T03:39:45.399Z,99881.98
2023-03-04T03:40:48.269Z,99877.06
2023-03-04T03:41:51.127Z,99881.40
2023-03-04T03:42:54.040Z,99886.76
2023-03-04T03:43:57.078Z,99884.80
2023-03-04T03:45:00.019Z,99876.06
2023-03-04T03:46:03.084Z,99874.94
2023-03-04T03:47:06.076Z,99888.62
2023-03-04T03:48:08.956Z,99875.05
2023-03-04T03:49:11.876Z,99879.59
2023-03-04T03:50:14.821Z,99873.86
2023-03-04T03:51:17.674Z,99880.83
2023-03-04T03:52:20.534Z,99881.40
2023-03-04T03:53:23.524Z,99884.09
2023-03-04T03:54:26.461Z,99875.70
2023-03-04T03:55:29.533Z,99869.64
2023-03-04T03:56:32.754Z,99876.98
2023-03-04T03:57:35.644Z,99868.86
2023-03-04T03:58:38.479Z,99869.59
2023-03-04T03:59:41.345Z,99872.95
2023-03-04T04:00:44.258Z,99880.00
2023-03-04T04:01:47.302Z,99870.09
2023-03-04T04:02:50.602Z,99878.65
2023-03-04T04:03:53.512Z,99874.92
2023-03-04T04:04:56.350Z,99867.79
2023-03-04T04:05:59.223Z,99875.98
2023-03-04T04:07:02.222Z,99875.83
2023-03-04T04:08:05.354Z,99874.54
2023-03-04T04:09:08.183Z,99875.41
2023-03-04T04:10:11.756Z,99871.72
2023-03-04T04:11:14.636Z,99867.78
2023-03-04T04:12:18.687Z,99868.15
2023-03-04T04:13:21.603Z,99871.72
2023-03-04T04:14:24.461Z,99870.98
2023-03-04T04:15:27.641Z,99866.92
2023-03-04T04:16:31.135Z,99872.53
2023-03-04T04:17:34.006Z,99867.58
2023-03-04T04:18:37.123Z,99865.48
2023-03-04T04:19:40.826Z,99865.71
2023-03-04T04:20:43.674Z,99866.86
2023-03-04T04:21:46.976Z,99864.48
2023-03-04T04:22:50.218Z,99859.41
2023-03-04T04:23:53.066Z,99862.94
2023-03-04T04:24:55.942Z,99858.71
2023-03-04T04:25:58.945Z,99862.52
2023-03-04T04:27:02.381Z,99864.54
2023-03-04T04:28:05.375Z,99862.08
2023-03-04T04:29:08.765Z,99862.36
2023-03-04T04:30:12.304Z,99859.12
2023-03-04T04:31:15.272Z,99861.41
2023-03-04T04:32:18.204Z,99860.55
2023-03-04T04:33:21.133Z,99859.36
2023-03-04T04:34:24.158Z,99863.67
2023-03-04T04:35:27.356Z,99866.65
2023-03-04T04:36:30.358Z,99859.41
2023-03-04T04:37:33.389Z,99864.03
2023-03-04T04:38:37.794Z,99862.42
2023-03-04T04:39:40.681Z,99859.15
2023-03-04T04:40:43.673Z,99853.41
2023-03-04T04:41:46.909Z,99856.81
2023-03-04T04:42:49.989Z,99853.20
2023-03-04T04:43:53.034Z,99860.05
2023-03-04T04:44:57.367Z,99858.97
2023-03-04T04:46:00.356Z,99859.23
2023-03-04T04:47:03.254Z,99857.55
2023-03-04T04:48:06.453Z,99854.42
2023-03-04T04:49:09.963Z,99864.52
2023-03-04T04:50:12.886Z,99854.80
2023-03-04T04:51:15.997Z,99853.04
2023-03-04T04:52:19.008Z,99844.96
2023-03-04T04:53:25.252Z,99856.23
2023-03-04T04:54:28.247Z,99846.27
2023-03-04T04:55:31.349Z,99849.27
2023-03-04T04:56:34.700Z,99847.73
2023-03-04T04:57:37.757Z,99844.38
2023-03-04T04:58:41.079Z,99849.26
2023-03-04T04:59:44.000Z,99846.42
2023-03-04T05:00:46.879Z,99845.27
2023-03-04T05:01:49.845Z,99845.17
2023-03-04T05:02:52.760Z,99846.21
2023-03-04T05:03:56.376Z,99845.24
2023-03-04T05:04:59.253Z,99845.81
2023-03-04T05:06:04.280Z,99838.27
2023-03-04T05:07:07.190Z,99849.69
2023-03-04T05:08:10.084Z,99842.04
2023-03-04T05:09:13.614Z,99846.22
2023-03-04T05:10:16.949Z,99845.02
2023-03-04T05:11:20.349Z,99851.66
2023-03-04T05:12:23.269Z,99844.58
2023-03-04T05:13:26.500Z,99842.81
2023-03-04T05:14:29.368Z,99845.80
2023-03-04T05:15:32.276Z,99839.08
2023-03-04T05:16:35.250Z,99843.23
2023-03-04T05:17:38.223Z,99841.21
2023-03-04T05:18:41.424Z,99834.16
2023-03-04T05:19:44.248Z,99836.22
2023-03-04T05:20:52.759Z,99834.04
2023-03-04T05:21:55.624Z,99839.16
2023-03-04T05:22:58.547Z,99832.44
2023-03-04T05:24:01.425Z,99836.54
2023-03-04T05:25:04.625Z,99828.79
2023-03-04T05:26:11.391Z,99836.70
2023-03-04T05:27:14.250Z,99826.25
2023-03-04T05:28:17.882Z,99826.36
2023-03-04T05:29:20.805Z,99829.55
2023-03-04T05:30:23.651Z,99821.20
2023-03-04T05:31:26.994Z,99820.46
2023-03-04T05:32:30.161Z,99826.16
2023-03-04T05:33:33.395Z,99826.33
2023-03-04T05:34:36.237Z,99820.14
2023-03-04T05:35:40.753Z,99828.70
2023-03-04T05:36:43.632Z,99825.84
2023-03-04T05:37:46.502Z,99826.58
2023-03-04T05:38:49.814Z,99820.15
2023-03-04T05:39:52.666Z,99828.92
2023-03-04T05:41:00.970Z,99825.67
2023-03-04T05:42:03.840Z,99828.21
2023-03-04T05:43:06.742Z,99827.89
2023-03-04T05:44:09.605Z,99820.91
2023-03-04T05:45:13.026Z,99821.86
2023-03-04T05:46:17.923Z,99826.26
2023-03-04T05:47:20.885Z,99827.80
2023-03-04T05:48:24.465Z,99824.85
2023-03-04T05:49:27.350Z,99822.36
2023-03-04T05:50:30.668Z,99829.19
2023-03-04T05:51:33.598Z,99818.09
2023-03-04T05:52:36.586Z,99825.95
2023-03-04T05:53:41.110Z,99816.54
2023-03-04T05:54:43.998Z,99828.35
2023-03-04T05:55:47.918Z,99831.13
2023-03-04T05:56:50.750Z,99817.77
2023-03-04T05:57:54.026Z,99815.43
2023-03-04T05:58:59.250Z,99817.19
2023-03-04T06:00:02.941Z,99818.63
2023-03-04T06:01:16.474Z,99823.28
2023-03-04T06:02:19.751Z,99816.91
2023-03-04T06:03:22.987Z,99817.31
2023-03-04T06:04:26.013Z,99819.11
2023-03-04T06:05:28.922Z,99818.71
2023-03-04T06:06:32.100Z,99814.86
2023-03-04T06:07:35.164Z,99808.98
2023-03-04T06:08:38.228Z,99816.89
2023-03-04T06:09:41.106Z,99811.23
2023-03-04T06:10:43.984Z,99816.07
2023-03-04T06:11:47.245Z,99811.48
2023-03-04T06:12:50.105Z,99806.80
2023-03-04T06:13:53.130Z,99809.30
2023-03-04T06:14:56.042Z,99812.70
2023-03-04T06:15:59.703Z,99814.01
2023-03-04T06:17:02.633Z,99810.69
2023-03-04T06:18:07.259Z,99807.20
2023-03-04T06:19:10.138Z,99806.75
2023-03-04T06:20:13.130Z,99804.75
2023-03-04T06:21:16.027Z,99802.86
2023-03-04T06:22:18.904Z,99801.55
2023-03-04T06:23:21.762Z,99805.14
2023-03-04T06:24:24.675Z,99803.95
2023-03-04T06:25:28.003Z,99805.33
2023-03-04T06:26:31.398Z,99803.27
2023-03-04T06:27:34.313Z,99802.25
2023-03-04T06:28:37.276Z,99797.23
2023-03-04T06:29:40.176Z,99802.70
2023-03-04T06:30:43.404Z,99792.85
2023-03-04T06:31:46.440Z,99800.39
2023-03-04T06:32:49.547Z,99803.57
2023-03-04T06:33:52.477Z,99802.33
2023-03-04T06:34:55.546Z,99801.21
2023-03-04T06:35:58.484Z,99804.04
2023-03-04T06:37:01.357Z,99802.10
2023-03-04T06:38:04.274Z,99798.73
2023-03-04T06:39:08.009Z,99802.85
2023-03-04T06:40:12.102Z,99799.52
2023-03-04T06:41:15.345Z,99804.14
2023-03-04T06:42:19.446Z,99796.11
2023-03-04T06:43:22.317Z,99796.35
2023-03-04T06:44:25.241Z,99801.88
2023-03-04T06:45:28.143Z,99793.55
2023-03-04T06:46:31.224Z,99794.50
2023-03-04T06:47:34.423Z,99798.10
2023-03-04T06:48:37.655Z,99794.86
2023-03-04T06:49:40.586Z,99788.06
2023-03-04T06:50:43.449Z,99797.17
2023-03-04T06:51:46.288Z,99801.47
2023-03-04T06:52:49.486Z,99801.60
2023-03-04T06:53:52.547Z,99807.30
2023-03-04T06:54:55.388Z,99802.79
2023-03-04T06:55:58.558Z,99804.63
2023-03-04T06:57:01.416Z,99803.48
2023-03-04T06:58:04.362Z,99801.20
2023-03-04T06:59:07.184Z,99809.04
2023-03-04T07:00:10.672Z,99803.90
2023-03-04T07:01:14.515Z,99804.19
2023-03-04T07:02:17.358Z,99814.98
2023-03-04T07:03:21.347Z,99809.27
2023-03-04T07:04:24.805Z,99812.11
2023-03-04T07:05:28.107Z,99808.83
2023-03-04T07:06:31.138Z,99803.86
2023-03-04T07:07:33.995Z,99810.55
2023-03-04T07:08:37.130Z,99811.05
2023-03-04T07:09:40.491Z,99803.89
2023-03-04T07:10:43.404Z,99803.48
2023-03-04T07:11:46.622Z,99803.21
2023-03-04T07:12:49.587Z,99800.52
2023-03-04T07:13:52.974Z,99805.55
2023-03-04T07:14:55.872Z,99807.02
2023-03-04T07:16:00.542Z,99804.51
2023-03-04T07:17:03.470Z,99801.57
2023-03-04T07:18:06.340Z,99797.51
2023-03-04T07:19:09.292Z,99801.47
2023-03-04T07:20:12.510Z,99804.61
2023-03-04T07:21:16.532Z,99800.33
2023-03-04T07:22:19.437Z,99798.94
2023-03-04T07:23:22.340Z,99799.25
2023-03-04T07:24:25.228Z,99795.23
2023-03-04T07:25:28.355Z,99794.01
2023-03-04T07:26:31.238Z,99787.52
2023-03-04T07:27:34.159Z,99789.23
2023-03-04T07:28:37.496Z,99788.84
2023-03-04T07:29:40.379Z,99793.07
2023-03-04T07:30:43.720Z,99789.55
2023-03-04T07:31:46.738Z,99791.18
2023-03-04T07:32:49.725Z,99796.09
2023-03-04T07:33:52.762Z,99790.00
2023-03-04T07:34:55.624Z,99787.33
2023-03-04T07:36:00.241Z,99791.08
2023-03-04T07:37:03.556Z,99784.20
2023-03-04T07:38:06.676Z,99781.89
2023-03-04T07:39:11.480Z,99782.06
2023-03-04T07:40:14.429Z,99782.52
2023-03-04T07:41:18.802Z,99786.40
2023-03-04T07:42:21.667Z,99779.02
2023-03-04T07:43:28.652Z,99784.22
2023-03-04T07:44:31.934Z,99782.70
2023-03-04T07:45:35.190Z,99779.90
2023-03-04T07:46:38.270Z,99778.48
2023-03-04T07:47:41.552Z,99774.90
2023-03-04T07:48:44.815Z,99771.78
2023-03-04T07:49:47.616Z,99767.52
2023-03-04T07:50:50.484Z,99785.13
2023-03-04T07:51:53.404Z,99769.85
2023-03-04T07:52:56.302Z,99771.11
2023-03-04T07:54:00.972Z,99773.84
2023-03-04T07:55:04.022Z,99772.52
2023-03-04T07:56:08.503Z,99771.08
2023-03-04T07:57:11.508Z,99771.39
2023-03-04T07:58:14.351Z,99766.63
2023-03-04T07:59:17.207Z,99767.38
2023-03-04T08:00:20.458Z,99774.23
2023-03-04T08:01:45.531Z,99762.25
2023-03-04T08:02:52.350Z,99769.41
2023-03-04T08:03:55.864Z,99768.35
2023-03-04T08:04:58.710Z,99766.21
2023-03-04T08:06:04.914Z,99763.63
2023-03-04T08:07:07.817Z,99764.25
2023-03-04T08:08:10.933Z,99762.30
2023-03-04T08:09:14.157Z,99766.27
2023-03-04T08:10:17.277Z,99766.83
2023-03-04T08:11:21.753Z,99763.70
2023-03-04T08:12:25.328Z,99758.73
2023-03-04T08:13:28.355Z,99765.59
2023-03-04T08:14:31.261Z,99764.23
2023-03-04T08:15:35.473Z,99759.23
2023-03-04T08:16:38.628Z,99759.23
2023-03-04T08:17:41.594Z,99755.34
2023-03-04T08:18:46.010Z,99758.25
2023-03-04T08:19:49.312Z,99764.41
2023-03-04T08:20:52.568Z,99758.98
2023-03-04T08:21:55.523Z,99760.59
2023-03-04T08:22:58.368Z,99762.31
2023-03-04T08:24:08.136Z,99766.04
2023-03-04T08:25:11.595Z,99760.13
2023-03-04T08:26:27.723Z,99761.03
2023-03-04T08:27:30.568Z,99756.45
2023-03-04T08:28:34.124Z,99754.26
2023-03-04T08:29:37.084Z,99754.83
2023-03-04T08:30:41.056Z,99753.88
2023-03-04T08:31:48.746Z,99754.65
2023-03-04T08:32:52.164Z,99762.73
2023-03-04T08:33:55.302Z,99755.05
2023-03-04T08:34:58.177Z,99760.05
2023-03-04T08:36:01.108Z,99751.83
2023-03-04T08:37:04.003Z,99757.00
2023-03-04T08:38:07.273Z,99759.62
2023-03-04T08:39:13.636Z,99752.92
2023-03-04T08:40:16.622Z,99754.36
2023-03-04T08:41:20.525Z,99748.65
2023-03-04T08:42:24.289Z,99748.61
2023-03-04T08:43:27.429Z,99747.26
2023-03-04T08:44:30.316Z,99751.33
2023-03-04T08:45:33.303Z,99748.64
2023-03-04T08:46:51.620Z,99747.92
2023-03-04T08:47:55.616Z,99744.51
2023-03-04T08:48:58.508Z,99749.27
2023-03-04T08:50:01.353Z,99744.10
2023-03-04T08:51:09.058Z,99748.33
2023-03-04T08:52:11.916Z,99747.62
2023-03-04T08:53:16.480Z,99749.44
2023-03-04T08:54:19.660Z,99739.83
2023-03-04T08:55:22.541Z,99745.36
2023-03-04T08:56:25.438Z,99747.70
2023-03-04T08:57:28.713Z,99745.30
2023-03-04T08:58:31.776Z,99746.48
2023-03-04T08:59:37.066Z,99745.27
2023-03-04T09:00:44.618Z,99747.41
2023-03-04T09:01:47.675Z,99738.36
2023-03-04T09:02:50.533Z,99738.05
2023-03-04T09:03:53.699Z,99742.33
2023-03-04T09:04:56.920Z,99736.41
2023-03-04T09:06:02.238Z,99737.66
2023-03-04T09:07:05.218Z,99732.76
2023-03-04T09:08:08.287Z,99735.54
2023-03-04T09:09:11.155Z,99732.45
2023-03-04T09:10:14.178Z,99740.84
2023-03-04T09:11:17.763Z,99731.27
2023-03-04T09:12:20.669Z,99729.67
2023-03-04T09:13:26.292Z,99736.13
2023-03-04T09:14:29.426Z,99737.22
2023-03-04T09:15:36.663Z,99733.34
2023-03-04T09:16:39.735Z,99726.14
2023-03-04T09:17:42.697Z,99729.21
2023-03-04T09:18:45.563Z,99726.26
2023-03-04T09:19:48.419Z,99722.88
2023-03-04T09:20:51.938Z,99721.80
2023-03-04T09:21:55.948Z,99720.35
2023-03-04T09:23:03.273Z,99720.52
2023-03-04T09:24:06.321Z,99718.30
2023-03-04T09:25:13.738Z,99718.20
2023-03-04T09:26:23.166Z,99710.23
2023-03-04T09:27:26.121Z,99710.80
2023-03-04T09:28:28.946Z,99706.70
2023-03-04T09:29:31.888Z,99704.70
2023-03-04T09:30:35.498Z,99704.72
2023-03-04T09:31:38.416Z,99707.36
2023-03-04T09:32:41.581Z,99707.48
2023-03-04T09:33:45.012Z,99704.08
2023-03-04T09:34:47.928Z,99703.11
2023-03-04T09:35:50.926Z,99703.58
2023-03-04T09:36:53.838Z,99706.98
2023-03-04T09:37:58.177Z,99702.30
2023-03-04T09:39:04.393Z,99703.08
2023-03-04T09:40:08.307Z,99694.69
2023-03-04T09:41:18.172Z,99696.39
2023-03-04T09:42:36.362Z,99702.06
2023-03-04T09:43:40.299Z,99703.27
2023-03-04T09:45:05.878Z,99698.61
2023-03-04T09:46:38.405Z,99698.69
2023-03-04T09:47:42.332Z,99701.19
2023-03-04T09:48:51.909Z,99690.80
2023-03-04T09:49:58.184Z,99692.61
2023-03-04T09:51:21.908Z,99692.11
2023-03-04T09:52:27.841Z,99685.30
2023-03-04T09:54:16.471Z,99691.30
2023-03-04T09:55:36.520Z,99679.77
2023-03-04T09:56:41.738Z,99684.46
2023-03-04T09:57:48.244Z,99677.23
2023-03-04T09:58:56.979Z,99670.93
2023-03-04T09:59:59.816Z,99676.23
2023-03-04T10:01:25.708Z,99671.55
2023-03-04T10:02:43.820Z,99668.23
2023-03-04T10:03:54.258Z,99675.56
2023-03-04T10:05:01.035Z,99673.98
2023-03-04T10:06:11.740Z,99669.25
2023-03-04T10:07:29.808Z,99673.80
2023-03-04T10:08:52.574Z,99671.84
2023-03-04T10:10:07.525Z,99672.49
2023-03-04T10:11:21.696Z,99668.72
2023-03-04T10:12:30.356Z,99669.27
2023-03-04T10:13:41.311Z,99666.23
2023-03-04T10:14:52.578Z,99668.02
2023-03-04T10:15:58.635Z,99669.10
2023-03-04T10:17:16.802Z,99665.12
2023-03-04T10:18:22.332Z,99658.83
2023-03-04T10:19:37.102Z,99668.70
2023-03-04T10:20:55.923Z,99665.66
2023-03-04T10:21:59.178Z,99663.65
2023-03-04T10:23:18.440Z,99664.80
2023-03-04T10:24:25.240Z,99661.89
2023-03-04T10:25:31.181Z,99664.03
2023-03-04T10:26:34.254Z,99661.23
2023-03-04T10:27:37.345Z,99664.60
2023-03-04T10:28:40.399Z,99654.29
2023-03-04T10:29:43.922Z,99657.00
2023-03-04T10:30:55.634Z,99652.98
2023-03-04T10:31:58.811Z,99653.04
2023-03-04T10:33:01.924Z,99649.90
2023-03-04T10:34:07.133Z,99651.00
2023-03-04T10:35:15.913Z,99653.88
2023-03-04T10:36:31.409Z,99648.98
2023-03-04T10:37:46.562Z,99651.83
2023-03-04T10:38:54.737Z,99647.86
2023-03-04T10:40:01.394Z,99642.85
2023-03-04T10:41:36.773Z,99635.50
2023-03-04T10:42:40.444Z,99627.23
2023-03-04T10:43:46.893Z,99640.66
2023-03-04T10:45:00.923Z,99635.57
2023-03-04T10:46:03.909Z,99627.91
2023-03-04T10:47:12.066Z,99630.02
2023-03-04T10:48:24.497Z,99631.81
2023-03-04T10:49:29.391Z,99631.08
2023-03-04T10:50:32.852Z,99627.83
2023-03-04T10:51:44.820Z,99621.77
2023-03-04T10:52:53.327Z,99621.78
2023-03-04T10:54:04.129Z,99626.31
2023-03-04T10:55:17.234Z,99615.09
2023-03-04T10:56:35.892Z,99621.14
2023-03-04T10:57:41.819Z,99615.71
2023-03-04T10:58:44.662Z,99614.06
2023-03-04T11:00:22.914Z,99611.76
2023-03-04T11:01:26.224Z,99608.76
2023-03-04T11:02:34.715Z,99616.13
2023-03-04T11:03:38.114Z,99609.19
2023-03-04T11:04:41.003Z,99609.10
2023-03-04T11:05:43.964Z,99606.63
2023-03-04T11:06:46.788Z,99611.52
2023-03-04T11:07:59.757Z,99612.06
2023-03-04T11:09:02.662Z,99610.52
2023-03-04T11:10:10.829Z,99615.42
2023-03-04T11:11:44.847Z,99607.42
2023-03-04T11:13:10.561Z,99605.10
2023-03-04T11:14:18.490Z,99611.50
2023-03-04T11:15:31.252Z,99613.42
2023-03-04T11:16:34.943Z,99612.73
2023-03-04T11:17:48.457Z,99609.24
2023-03-04T11:18:54.354Z,99613.27
2023-03-04T11:20:28.193Z,99615.70
2023-03-04T11:21:39.980Z,99602.60
2023-03-04T11:22:46.131Z,99613.23
2023-03-04T11:24:08.132Z,99608.49
2023-03-04T11:25:29.871Z,99613.02
2023-03-04T11:26:42.976Z,99609.41
2023-03-04T11:27:52.354Z,99604.79
2023-03-04T11:29:16.158Z,99609.67
2023-03-04T11:30:21.876Z,99601.23
2023-03-04T11:31:29.249Z,99601.05
2023-03-04T11:32:40.844Z,99602.17
2023-03-04T11:34:07.976Z,99599.60
2023-03-04T11:35:35.501Z,99604.55
2023-03-04T11:36:50.698Z,99598.99
2023-03-04T11:38:05.816Z,99596.42
2023-03-04T11:39:24.415Z,99599.48
2023-03-04T11:40:43.207Z,99591.59
2023-03-04T11:41:54.965Z,99597.36
2023-03-04T11:43:04.605Z,99595.88
2023-03-04T11:44:09.028Z,99586.73
2023-03-04T11:45:27.912Z,99588.14
2023-03-04T11:47:12.939Z,99595.02
2023-03-04T11:48:34.168Z,99585.82
2023-03-04T11:50:05.006Z,99592.90
2023-03-04T11:51:23.822Z,99588.11
2023-03-04T11:52:39.814Z,99594.10
2023-03-04T11:53:49.942Z,99593.92
2023-03-04T11:55:26.039Z,99589.05
2023-03-04T11:56:44.865Z,99582.21
2023-03-04T11:57:53.780Z,99582.39
2023-03-04T11:59:17.606Z,99589.81
2023-03-04T12:00:47.929Z,99590.46
2023-03-04T12:01:53.801Z,99588.84
2023-03-04T12:03:31.659Z,99586.48
2023-03-04T12:04:50.068Z,99578.44
2023-03-04T12:06:14.589Z,99580.63
2023-03-04T12:07:39.429Z,99583.85
2023-03-04T12:09:09.056Z,99583.66
2023-03-04T12:10:30.672Z,99579.17
2023-03-04T12:11:46.374Z,99586.64
2023-03-04T12:13:07.411Z,99583.80
2023-03-04T12:14:52.634Z,99586.80
2023-03-04T12:16:04.520Z,99577.90
2023-03-04T12:17:34.885Z,99583.91
2023-03-04T12:19:06.436Z,99576.81
2023-03-04T12:20:18.057Z,99584.19
2023-03-04T12:21:48.842Z,99579.32
2023-03-04T12:22:57.184Z,99570.92
2023-03-04T12:24:32.648Z,99578.27
2023-03-04T12:25:38.561Z,99576.31
2023-03-04T12:26:51.071Z,99577.05
2023-03-04T12:28:03.972Z,99576.31
2023-03-04T12:29:22.437Z,99577.25
2023-03-04T12:30:45.123Z,99580.63
2023-03-04T12:31:58.763Z,99576.27
2023-03-04T12:33:09.232Z,99570.02
2023-03-04T12:34:38.234Z,99579.02
2023-03-04T12:35:56.162Z,99577.13
2023-03-04T12:37:10.969Z,99585.40
2023-03-04T12:38:26.056Z,99588.42
2023-03-04T12:39:56.033Z,99593.48
2023-03-04T12:41:34.248Z,99590.63
2023-03-04T12:43:02.969Z,99590.77
2023-03-04T12:44:17.094Z,99586.48
2023-03-04T12:45:38.892Z,99593.38
2023-03-04T12:46:48.841Z,99597.91
2023-03-04T12:47:54.513Z,99589.77
2023-03-04T12:49:06.690Z,99588.10
2023-03-04T12:50:43.521Z,99597.02
2023-03-04T12:52:02.976Z,99590.34
2023-03-04T12:53:25.947Z,99591.71
2023-03-04T12:54:34.394Z,99584.02
2023-03-04T12:55:40.728Z,99577.95
2023-03-04T12:56:50.131Z,99587.10